In Rescue
 
Open Full Screen Window  High Contrast Mode
November 29, 2022 8:48 AM EST
Weather Information
Wind Direction
  ---
Wind Speed
  00 kt (0 mph)
Wind Gust
  00 kt (0 mph)
Altimeter
30.27 in
Visibility
10 SM
Temperature
00° C
32° F
Dewpoint
-06° C
21° F
Humidity
64%
1hr Rain Fall
00.00 in.
24hr Rain Fall
00.00 in.
Sky Condition
Overcast @ 3,000 ft
MVFR

METAR K6B0 291348Z AUTO 00000KT 10SM OVC030 00/M06 A3027 RMK AO2 T10031058

FAA Disclaimer: The data displayed is for advisory purposes only and is not to be used for flight planning or operations.